Time;durP1;ratioP1;P1;durP2;ratioP2;P2;SDS_P1;SDS_P2;PMS_P1;PMS_P2;Temp;Humidity;BMP_temperature;BMP_pressure;BME280_temperature;BME280_humidity;BME280_pressure;Samples;Min_cycle;Max_cycle;Signal;HPM_P1;HPM_P2
2023/06/09 00:00:19;;;;;;;135.73;131.53;;;12.20;99.90;;;;;;5022307;28;20213;-79
2023/06/09 00:02:47;;;;;;;130.67;125.73;;;12.20;99.90;;;;;;5020075;28;20218;-82
2023/06/09 00:05:13;;;;;;;119.37;115.27;;;12.20;99.90;;;;;;5018920;28;20268;-82
2023/06/09 00:07:39;;;;;;;105.83;101.83;;;12.20;99.90;;;;;;5004684;28;20186;-81
2023/06/09 00:10:06;;;;;;;111.37;107.53;;;12.20;99.90;;;;;;5020226;28;20678;-81
2023/06/09 00:12:31;;;;;;;106.93;102.63;;;12.20;99.90;;;;;;5021422;28;20217;-84
2023/06/09 00:14:58;;;;;;;89.83;86.83;;;12.20;99.90;;;;;;5021133;28;20199;-82
2023/06/09 00:17:25;;;;;;;83.93;81.23;;;12.10;99.90;;;;;;5020847;28;20289;-80
2023/06/09 00:19:52;;;;;;;79.30;75.90;;;12.10;99.90;;;;;;5024893;28;20190;-82
2023/06/09 00:22:19;;;;;;;77.63;74.43;;;12.10;99.90;;;;;;5005932;28;20178;-80
2023/06/09 00:24:46;;;;;;;69.27;66.13;;;12.10;99.90;;;;;;5038993;28;20611;-81
2023/06/09 00:27:11;;;;;;;61.83;59.63;;;12.10;99.90;;;;;;5038673;28;20198;-82
2023/06/09 00:29:37;;;;;;;58.90;56.80;;;12.00;99.90;;;;;;5019626;28;20194;-78
2023/06/09 00:32:04;;;;;;;54.07;52.27;;;12.00;99.90;;;;;;5016592;28;20275;-85
2023/06/09 00:34:30;;;;;;;54.33;52.33;;;12.00;99.90;;;;;;5023913;28;20224;-83
2023/06/09 00:36:56;;;;;;;56.37;54.47;;;12.00;99.90;;;;;;5021405;28;20652;-79
2023/06/09 00:39:22;;;;;;;54.27;51.03;;;12.00;99.90;;;;;;5005510;28;20711;-80
2023/06/09 00:41:48;;;;;;;58.50;56.07;;;12.10;99.90;;;;;;5016917;28;20194;-82
2023/06/09 00:44:15;;;;;;;60.97;58.67;;;12.10;99.90;;;;;;5034034;28;20222;-81
2023/06/09 00:46:42;;;;;;;70.33;67.73;;;12.10;99.90;;;;;;5023503;28;20850;-82
2023/06/09 00:49:09;;;;;;;78.57;75.87;;;12.10;99.90;;;;;;5022549;28;20190;-81
2023/06/09 00:51:36;;;;;;;81.43;78.60;;;12.10;99.90;;;;;;5023252;28;20198;-79
2023/06/09 00:54:04;;;;;;;87.27;84.37;;;12.10;99.90;;;;;;5021959;28;20192;-82
2023/06/09 00:56:31;;;;;;;92.23;89.17;;;12.10;99.90;;;;;;5003706;28;20577;-83
2023/06/09 00:58:58;;;;;;;106.13;102.53;;;12.10;99.90;;;;;;5022360;28;20198;-80
2023/06/09 01:01:24;;;;;;;110.57;106.17;;;12.10;99.90;;;;;;5021378;28;20183;-79
2023/06/09 01:03:50;;;;;;;113.73;110.13;;;12.10;99.90;;;;;;5020737;28;20734;-82
2023/06/09 01:06:38;;;;;;;113.90;110.30;;;12.10;99.90;;;;;;5054137;28;20206;-80
2023/06/09 01:09:24;;;;;;;113.23;109.63;;;12.10;99.90;;;;;;5024732;28;20191;-81
2023/06/09 01:11:59;;;;;;;108.50;105.00;;;12.10;99.90;;;;;;5020197;28;20946;-82
2023/06/09 01:14:34;;;;;;;106.83;103.43;;;12.10;99.90;;;;;;5022877;28;20772;-81
2023/06/09 01:17:14;;;;;;;95.97;92.90;;;12.10;99.90;;;;;;5055680;28;20237;-80
2023/06/09 01:19:43;;;;;;;81.27;78.33;;;12.10;99.90;;;;;;5023549;28;20178;-80
2023/06/09 01:22:57;;;;;;;71.93;69.33;;;12.10;99.90;;;;;;5022220;28;20205;-80
2023/06/09 01:25:31;;;;;;;56.80;54.07;;;12.10;99.90;;;;;;4992127;28;20214;-83
2023/06/09 01:27:59;;;;;;;46.03;43.77;;;12.10;99.90;;;;;;4993676;28;20559;-82
2023/06/09 01:30:29;;;;;;;39.60;37.53;;;12.10;99.90;;;;;;5005291;28;20306;-82
2023/06/09 01:32:58;;;;;;;27.67;26.10;;;12.10;99.90;;;;;;5022605;28;20273;-80
2023/06/09 01:35:24;;;;;;;20.10;19.07;;;12.00;99.90;;;;;;5020700;28;20695;-80
2023/06/09 01:37:52;;;;;;;18.10;16.93;;;12.00;99.90;;;;;;5021238;28;20208;-82
2023/06/09 01:40:19;;;;;;;16.33;14.80;;;12.00;99.90;;;;;;5020396;28;20576;-80
2023/06/09 01:42:45;;;;;;;15.87;15.10;;;12.00;99.90;;;;;;5021211;28;20191;-83
2023/06/09 01:45:11;;;;;;;16.10;15.00;;;11.90;99.90;;;;;;5004165;28;20800;-82
2023/06/09 01:47:37;;;;;;;14.73;14.03;;;11.90;99.90;;;;;;5020657;28;20203;-83
2023/06/09 01:50:18;;;;;;;17.27;16.17;;;11.90;99.90;;;;;;5022590;28;20187;-82
2023/06/09 01:53:02;;;;;;;18.03;17.20;;;12.00;99.90;;;;;;5020843;28;20196;-83
2023/06/09 01:55:36;;;;;;;21.27;20.17;;;12.00;99.90;;;;;;5022248;28;20283;-80
2023/06/09 01:58:05;;;;;;;27.67;26.47;;;12.00;99.90;;;;;;5027191;28;20210;-81
2023/06/09 02:00:32;;;;;;;32.53;30.93;;;12.00;99.90;;;;;;5024399;28;20195;-81
2023/06/09 02:03:00;;;;;;;36.87;35.43;;;11.90;99.90;;;;;;5004789;28;20631;-79
2023/06/09 02:05:28;;;;;;;46.30;44.43;;;12.00;99.90;;;;;;5025463;28;20242;-80
2023/06/09 02:07:54;;;;;;;48.63;46.83;;;11.90;99.90;;;;;;5021440;28;20236;-81
2023/06/09 02:10:21;;;;;;;51.63;49.70;;;12.00;99.90;;;;;;5020430;28;20265;-82
2023/06/09 02:12:47;;;;;;;52.70;50.90;;;11.90;99.90;;;;;;5021592;28;20185;-79
2023/06/09 02:15:13;;;;;;;52.90;50.87;;;12.00;99.90;;;;;;5022072;28;20679;-78
2023/06/09 02:17:42;;;;;;;43.37;41.57;;;12.00;99.90;;;;;;5023953;28;20193;-80
2023/06/09 02:20:09;;;;;;;41.80;40.03;;;12.00;99.90;;;;;;5008243;28;20644;-79
2023/06/09 02:22:38;;;;;;;28.63;27.37;;;12.00;99.90;;;;;;5022569;28;20241;-80
2023/06/09 02:25:04;;;;;;;18.60;17.53;;;12.00;99.90;;;;;;5024379;28;20219;-80
2023/06/09 02:27:30;;;;;;;19.43;18.50;;;12.00;99.90;;;;;;5058686;28;20528;-81
2023/06/09 02:29:56;;;;;;;30.20;28.97;;;12.00;99.90;;;;;;5017131;28;20206;-80
2023/06/09 02:32:22;;;;;;;40.63;39.10;;;12.00;99.90;;;;;;5024473;28;20236;-84
2023/06/09 02:34:48;;;;;;;77.53;74.63;;;12.00;99.90;;;;;;5025448;28;20198;-79
2023/06/09 02:37:15;;;;;;;149.67;145.03;;;12.00;99.90;;;;;;5023729;28;20182;-81
2023/06/09 02:39:41;;;;;;;178.00;172.50;;;12.00;99.90;;;;;;5026205;28;20183;-81
2023/06/09 02:42:07;;;;;;;232.90;225.73;;;12.00;99.90;;;;;;5057212;28;20273;-80
2023/06/09 02:44:37;;;;;;;303.07;293.90;;;12.00;99.90;;;;;;5033412;28;21102;-80
2023/06/09 02:47:06;;;;;;;313.87;304.67;;;12.00;99.90;;;;;;5021156;28;20285;-80
2023/06/09 02:49:32;;;;;;;319.60;310.20;;;12.00;99.90;;;;;;5020246;28;20237;-80
2023/06/09 02:51:58;;;;;;;311.60;302.37;;;12.00;99.90;;;;;;5024777;28;20191;-80
2023/06/09 02:54:24;;;;;;;278.37;269.33;;;12.00;99.90;;;;;;5023836;28;20682;-79
2023/06/09 02:56:51;;;;;;;285.83;277.17;;;12.00;99.90;;;;;;5021601;28;20232;-82
2023/06/09 02:59:17;;;;;;;223.07;216.47;;;12.00;99.90;;;;;;5018759;28;21056;-80
2023/06/09 03:01:43;;;;;;;153.57;148.17;;;12.00;99.90;;;;;;5020415;28;20198;-81
2023/06/09 03:04:09;;;;;;;119.17;114.67;;;12.00;99.90;;;;;;5019686;28;20252;-80
2023/06/09 03:06:36;;;;;;;79.60;76.90;;;12.00;99.90;;;;;;5019556;28;20190;-81
2023/06/09 03:09:03;;;;;;;62.53;59.73;;;12.00;99.90;;;;;;5030807;28;20171;-80
2023/06/09 03:11:32;;;;;;;39.00;37.37;;;11.90;99.90;;;;;;5020244;28;20333;-81
2023/06/09 03:13:57;;;;;;;26.43;25.33;;;12.00;99.90;;;;;;5020364;28;20302;-81
2023/06/09 03:16:23;;;;;;;19.80;18.80;;;12.00;99.90;;;;;;5020615;28;20261;-82
2023/06/09 03:18:50;;;;;;;19.27;18.07;;;12.00;99.90;;;;;;5019630;28;20248;-81
2023/06/09 03:21:16;;;;;;;15.53;14.70;;;12.00;99.90;;;;;;5003466;28;20229;-83
2023/06/09 03:23:42;;;;;;;16.70;14.97;;;11.90;99.90;;;;;;5002423;28;20264;-84
2023/06/09 03:26:08;;;;;;;16.53;15.53;;;11.90;99.90;;;;;;5003016;28;20573;-81
2023/06/09 03:28:34;;;;;;;14.93;14.27;;;12.00;99.90;;;;;;5002504;28;20194;-80
2023/06/09 03:30:59;;;;;;;18.60;17.50;;;12.00;99.90;;;;;;5019252;28;20252;-81
2023/06/09 03:33:25;;;;;;;23.67;22.57;;;12.00;99.90;;;;;;5018261;28;20582;-83
2023/06/09 03:35:51;;;;;;;36.20;34.97;;;12.00;99.90;;;;;;5019295;28;20195;-80
2023/06/09 03:38:18;;;;;;;98.13;94.67;;;12.00;99.90;;;;;;5019355;28;20270;-80
2023/06/09 03:40:44;;;;;;;180.23;174.60;;;12.00;99.90;;;;;;5051619;28;20193;-84
2023/06/09 03:43:11;;;;;;;254.93;246.83;;;12.00;99.90;;;;;;5019610;28;20193;-82
2023/06/09 03:45:37;;;;;;;324.77;314.67;;;12.10;99.90;;;;;;5001437;28;20605;-82
2023/06/09 03:48:05;;;;;;;383.47;371.43;;;12.10;99.90;;;;;;5021368;28;20195;-82
2023/06/09 03:50:31;;;;;;;419.00;405.33;;;12.10;99.90;;;;;;5022690;28;20190;-80
2023/06/09 03:52:57;;;;;;;443.40;428.83;;;12.20;99.90;;;;;;5023430;28;20648;-80
2023/06/09 03:55:24;;;;;;;421.57;408.07;;;12.20;99.90;;;;;;5022400;28;20247;-82
2023/06/09 03:57:50;;;;;;;367.40;355.93;;;12.20;99.90;;;;;;5021554;28;20277;-82
2023/06/09 04:00:17;;;;;;;309.70;300.27;;;12.20;99.90;;;;;;5023667;28;20648;-79
2023/06/09 04:02:43;;;;;;;237.67;229.33;;;12.20;99.90;;;;;;5023139;28;21007;-81
2023/06/09 04:05:09;;;;;;;163.13;157.97;;;12.30;99.90;;;;;;5022748;28;20269;-81
2023/06/09 04:07:35;;;;;;;131.60;126.97;;;12.30;99.90;;;;;;5023055;28;20233;-82
2023/06/09 04:10:02;;;;;;;109.30;105.77;;;12.40;99.90;;;;;;5023022;28;20194;-79
2023/06/09 04:12:28;;;;;;;131.70;127.37;;;12.40;99.90;;;;;;5021730;28;20249;-79
2023/06/09 04:14:55;;;;;;;149.20;144.47;;;12.40;99.90;;;;;;5022219;28;20221;-81
2023/06/09 04:17:22;;;;;;;206.60;198.90;;;12.50;99.90;;;;;;5022071;28;20187;-79
2023/06/09 04:19:48;;;;;;;217.47;210.97;;;12.50;99.90;;;;;;5030339;28;20186;-78
2023/06/09 04:22:14;;;;;;;234.27;227.30;;;12.60;99.90;;;;;;5023711;28;20194;-80
2023/06/09 04:24:40;;;;;;;222.83;216.13;;;12.60;99.90;;;;;;5024123;28;20714;-79
2023/06/09 04:27:07;;;;;;;172.23;166.63;;;12.70;99.90;;;;;;5005091;28;20217;-79
2023/06/09 04:29:33;;;;;;;167.87;162.50;;;12.80;99.90;;;;;;5020112;28;20195;-79
2023/06/09 04:32:00;;;;;;;94.77;91.57;;;12.70;99.90;;;;;;5022543;28;20674;-80
2023/06/09 04:34:29;;;;;;;64.20;61.50;;;12.90;99.90;;;;;;5022755;28;20190;-80
2023/06/09 04:37:00;;;;;;;36.07;34.03;;;12.90;99.90;;;;;;5023216;28;20198;-80
2023/06/09 04:39:28;;;;;;;30.07;28.40;;;13.00;99.90;;;;;;5031857;28;20695;-80
2023/06/09 04:41:54;;;;;;;29.70;27.67;;;13.10;99.90;;;;;;5022415;28;20206;-80
2023/06/09 04:44:21;;;;;;;36.60;34.73;;;13.10;99.90;;;;;;5024053;28;20206;-82
2023/06/09 04:46:49;;;;;;;67.60;65.00;;;13.20;99.90;;;;;;5023022;28;20198;-79
2023/06/09 04:49:15;;;;;;;73.57;70.97;;;13.20;99.90;;;;;;5023394;28;20265;-80
2023/06/09 04:51:48;;;;;;;67.97;65.57;;;13.30;99.90;;;;;;5015324;28;20179;-81
2023/06/09 04:54:18;;;;;;;49.37;47.30;;;13.30;99.90;;;;;;5020862;28;20194;-80
2023/06/09 04:56:45;;;;;;;33.37;31.83;;;13.40;99.90;;;;;;5019134;28;20269;-80
2023/06/09 04:59:14;;;;;;;23.20;21.70;;;13.40;99.90;;;;;;5018845;28;20188;-83
2023/06/09 05:01:40;;;;;;;31.27;29.93;;;13.50;99.90;;;;;;5020701;28;20199;-81
2023/06/09 05:04:08;;;;;;;52.50;50.53;;;13.50;99.90;;;;;;5020862;28;20242;-82
2023/06/09 05:06:36;;;;;;;76.80;74.07;;;13.60;99.90;;;;;;5021099;28;20199;-83
2023/06/09 05:09:04;;;;;;;106.87;103.20;;;13.60;99.90;;;;;;5021762;28;20237;-82
2023/06/09 05:11:30;;;;;;;138.30;134.00;;;13.60;99.90;;;;;;5004165;28;21715;-85
2023/06/09 05:13:55;;;;;;;143.70;139.03;;;13.70;99.90;;;;;;5005184;28;20194;-82
2023/06/09 05:16:25;;;;;;;130.80;126.40;;;14.20;99.90;;;;;;5020127;28;20687;-84
2023/06/09 05:18:52;;;;;;;103.27;99.47;;;14.80;99.90;;;;;;5019145;28;20236;-86
2023/06/09 05:21:18;;;;;;;96.70;93.37;;;15.70;99.90;;;;;;5004150;28;20181;-82
2023/06/09 05:23:44;;;;;;;75.23;72.63;;;15.20;99.90;;;;;;5006975;28;20207;-82
2023/06/09 05:26:10;;;;;;;78.00;75.40;;;15.20;99.90;;;;;;5022997;28;20586;-84
2023/06/09 05:28:36;;;;;;;79.00;76.43;;;15.50;99.90;;;;;;5041044;28;20195;-88
2023/06/09 05:31:02;;;;;;;80.30;77.20;;;15.80;99.90;;;;;;5024234;28;20187;-84
2023/06/09 05:33:28;;;;;;;80.13;76.93;;;16.40;99.90;;;;;;5025004;28;20186;-86
2023/06/09 05:35:54;;;;;;;83.07;79.97;;;16.60;99.90;;;;;;5008677;28;20569;-89
2023/06/09 05:38:23;;;;;;;94.37;90.83;;;16.80;99.90;;;;;;5025439;28;20198;-85
2023/06/09 05:40:49;;;;;;;89.00;85.90;;;17.10;99.90;;;;;;5022396;28;20780;-83
2023/06/09 05:43:15;;;;;;;97.27;94.17;;;17.70;99.90;;;;;;5006159;28;20231;-85
2023/06/09 05:45:43;;;;;;;97.40;93.80;;;18.00;99.90;;;;;;5021208;28;20539;-83
2023/06/09 05:48:09;;;;;;;119.20;115.40;;;18.70;99.90;;;;;;5007931;28;20269;-84
2023/06/09 05:50:37;;;;;;;122.17;118.27;;;18.90;99.90;;;;;;5052036;28;20209;-85
2023/06/09 05:53:03;;;;;;;136.07;131.70;;;18.70;99.90;;;;;;5004572;28;20202;-87
2023/06/09 05:55:29;;;;;;;129.37;124.93;;;18.70;99.90;;;;;;5005659;28;20186;-85
2023/06/09 05:57:56;;;;;;;156.63;151.87;;;18.80;99.90;;;;;;5022765;28;20193;-85
2023/06/09 06:00:29;;;;;;;154.87;149.97;;;18.30;99.90;;;;;;5008918;28;20683;-85
2023/06/09 06:02:55;;;;;;;148.53;143.70;;;17.80;99.90;;;;;;5009705;28;20698;-86
2023/06/09 06:05:21;;;;;;;157.47;152.23;;;17.50;99.90;;;;;;5022667;28;20235;-88
2023/06/09 06:07:47;;;;;;;154.83;150.03;;;17.30;99.90;;;;;;5008903;28;20656;-86
2023/06/09 06:10:12;;;;;;;156.50;151.73;;;17.40;99.90;;;;;;5025063;28;20178;-88
2023/06/09 06:12:39;;;;;;;149.83;144.93;;;17.80;99.90;;;;;;5010155;28;20193;-88
2023/06/09 06:15:05;;;;;;;158.13;152.67;;;18.10;99.90;;;;;;5024243;28;20277;-87
2023/06/09 06:17:31;;;;;;;152.83;148.00;;;18.30;99.90;;;;;;5008195;28;20198;-86
2023/06/09 06:19:57;;;;;;;146.53;141.87;;;18.00;99.90;;;;;;5009303;28;20200;-85
2023/06/09 06:22:23;;;;;;;155.40;150.27;;;18.20;99.90;;;;;;5024750;28;20183;-85
2023/06/09 06:24:49;;;;;;;154.50;149.47;;;18.60;99.90;;;;;;5024785;28;20294;-88
2023/06/09 06:27:15;;;;;;;179.63;174.00;;;18.70;99.90;;;;;;5025426;28;20322;-85
2023/06/09 06:29:41;;;;;;;199.20;193.30;;;18.20;99.90;;;;;;5008381;28;20191;-88
2023/06/09 06:32:08;;;;;;;211.97;204.37;;;18.10;99.90;;;;;;5014393;28;20209;-86
2023/06/09 06:34:34;;;;;;;215.13;208.40;;;18.50;99.90;;;;;;5041751;28;20274;-86
2023/06/09 06:37:00;;;;;;;218.57;211.63;;;18.80;99.90;;;;;;5007587;28;20218;-85
2023/06/09 06:39:26;;;;;;;240.50;233.13;;;18.60;99.90;;;;;;5025136;28;20186;-85
2023/06/09 06:41:51;;;;;;;237.63;230.63;;;18.20;99.90;;;;;;5026058;28;20195;-84
2023/06/09 06:44:17;;;;;;;212.67;205.87;;;17.80;99.90;;;;;;5006655;28;20218;-83
2023/06/09 06:46:43;;;;;;;208.63;201.93;;;17.50;99.90;;;;;;5023038;28;20199;-85
2023/06/09 06:49:10;;;;;;;201.33;195.23;;;18.30;99.90;;;;;;5007590;28;20410;-85
2023/06/09 06:51:36;;;;;;;220.47;213.60;;;18.80;99.90;;;;;;5024658;28;20208;-84
2023/06/09 06:54:03;;;;;;;241.13;233.67;;;18.30;99.90;;;;;;5008281;28;20294;-85
2023/06/09 06:56:29;;;;;;;236.83;229.03;;;17.90;99.90;;;;;;5008016;28;20237;-88
2023/06/09 06:58:55;;;;;;;208.37;201.63;;;18.40;99.90;;;;;;5006652;28;20242;-86
2023/06/09 07:01:21;;;;;;;220.30;213.73;;;18.80;99.90;;;;;;5007811;28;20198;-86
2023/06/09 07:03:50;;;;;;;230.93;224.03;;;19.30;99.90;;;;;;5057290;28;20368;-85
2023/06/09 07:06:17;;;;;;;223.73;216.33;;;18.50;99.90;;;;;;5025888;28;20193;-84
2023/06/09 07:08:43;;;;;;;210.67;204.17;;;18.60;99.90;;;;;;5022958;28;20187;-87
2023/06/09 07:11:09;;;;;;;213.47;207.00;;;18.80;99.90;;;;;;5007596;28;20198;-86
2023/06/09 07:13:35;;;;;;;213.00;206.73;;;18.80;99.90;;;;;;5006035;28;20193;-87
2023/06/09 07:16:01;;;;;;;214.10;207.43;;;18.80;99.90;;;;;;5024823;28;20567;-84
2023/06/09 07:18:28;;;;;;;224.47;217.87;;;19.00;99.90;;;;;;5007609;28;20191;-86
2023/06/09 07:20:53;;;;;;;233.63;226.33;;;19.10;99.90;;;;;;5023628;28;20202;-84
2023/06/09 07:23:19;;;;;;;264.80;257.00;;;19.40;99.90;;;;;;5023578;28;20213;-85
2023/06/09 07:25:45;;;;;;;249.17;241.57;;;19.80;99.90;;;;;;5024948;28;20980;-86
2023/06/09 07:28:11;;;;;;;265.60;257.03;;;20.10;99.90;;;;;;5023891;28;20687;-84
2023/06/09 07:30:40;;;;;;;278.33;270.30;;;20.00;99.90;;;;;;5008100;28;20555;-86
2023/06/09 07:33:06;;;;;;;271.47;263.50;;;19.30;99.90;;;;;;5008730;28;20643;-85
2023/06/09 07:35:33;;;;;;;272.40;264.00;;;19.50;99.90;;;;;;5023682;28;20229;-84
2023/06/09 07:37:58;;;;;;;276.00;267.33;;;20.20;99.90;;;;;;5025934;28;20229;-85
2023/06/09 07:40:24;;;;;;;270.37;262.63;;;20.30;99.90;;;;;;5007835;28;20278;-85
2023/06/09 07:42:50;;;;;;;267.87;260.00;;;20.20;99.90;;;;;;5005343;28;20626;-85
2023/06/09 07:45:16;;;;;;;254.97;247.30;;;20.10;99.90;;;;;;5004900;28;20211;-86
2023/06/09 07:47:42;;;;;;;218.77;212.13;;;20.80;99.90;;;;;;5027934;28;20200;-85
2023/06/09 07:50:08;;;;;;;201.80;195.67;;;20.50;99.90;;;;;;5008528;28;20182;-85
2023/06/09 07:52:37;;;;;;;187.23;180.87;;;20.80;99.90;;;;;;5007308;28;20190;-86
2023/06/09 07:55:04;;;;;;;158.40;153.27;;;20.90;99.90;;;;;;5057298;28;20187;-86
2023/06/09 07:57:29;;;;;;;178.17;172.47;;;20.20;99.90;;;;;;5006660;28;20190;-84
2023/06/09 07:59:56;;;;;;;192.60;186.43;;;20.40;99.90;;;;;;5005477;28;20194;-88
2023/06/09 08:02:21;;;;;;;194.80;188.83;;;20.50;99.90;;;;;;5023190;28;20182;-85
2023/06/09 08:04:47;;;;;;;153.98;148.82;;;20.70;99.90;;;;;;5009736;28;20238;-91
2023/06/09 08:07:14;;;;;;;151.60;146.57;;;20.60;99.90;;;;;;5012246;28;20261;-92
2023/06/09 08:09:40;;;;;;;165.70;160.23;;;20.50;99.90;;;;;;5029422;28;20190;-91
2023/06/09 08:12:06;;;;;;;150.70;145.63;;;20.60;99.90;;;;;;5012847;28;20182;-91
2023/06/09 08:14:32;;;;;;;156.80;151.13;;;20.80;99.90;;;;;;5010390;28;20201;-92
2023/06/09 08:16:58;;;;;;;142.43;137.63;;;21.00;99.90;;;;;;5010452;28;20602;-91
2023/06/09 08:19:24;;;;;;;142.38;137.25;;;21.00;99.90;;;;;;5011157;28;20191;-93
2023/06/09 08:21:50;;;;;;;122.43;118.38;;;20.80;99.90;;;;;;5008847;28;20213;-90
2023/06/09 08:24:16;;;;;;;118.20;114.33;;;21.00;99.90;;;;;;5028302;28;20202;-91
2023/06/09 08:26:43;;;;;;;125.18;120.60;;;21.10;99.90;;;;;;5028368;28;20197;-91
2023/06/09 08:29:10;;;;;;;124.07;119.70;;;20.80;99.90;;;;;;5026665;28;20277;-92
2023/06/09 08:31:39;;;;;;;112.75;108.93;;;20.50;99.90;;;;;;5025302;28;20274;-92
2023/06/09 08:34:05;;;;;;;136.02;131.52;;;20.70;99.90;;;;;;5036165;28;20187;-91
2023/06/09 08:36:31;;;;;;;144.70;140.17;;;20.70;99.90;;;;;;5029498;28;20590;-92
2023/06/09 08:38:57;;;;;;;134.53;129.83;;;21.40;99.90;;;;;;5011046;28;20191;-92
2023/06/09 08:41:27;;;;;;;124.47;120.28;;;21.20;99.90;;;;;;5059482;28;20187;-91
2023/06/09 08:43:53;;;;;;;134.67;129.73;;;20.90;99.90;;;;;;5027230;28;20211;-93
2023/06/09 08:46:21;;;;;;;140.33;135.37;;;21.00;99.90;;;;;;5011202;28;20190;-91
2023/06/09 08:48:50;;;;;;;170.97;165.37;;;20.70;99.90;;;;;;5034036;28;20245;-91
2023/06/09 08:51:16;;;;;;;175.20;169.38;;;20.70;99.90;;;;;;5026107;28;20202;-92
2023/06/09 08:53:43;;;;;;;169.73;164.32;;;21.00;99.90;;;;;;5041652;28;20636;-91
2023/06/09 08:56:09;;;;;;;173.57;167.87;;;21.10;99.90;;;;;;5031410;28;20194;-91
2023/06/09 08:58:39;;;;;;;149.87;145.13;;;21.20;99.90;;;;;;5013719;28;20217;-90
2023/06/09 09:01:05;;;;;;;171.25;165.95;;;21.70;99.90;;;;;;5029148;28;20190;-91
2023/06/09 09:03:32;;;;;;;141.98;137.45;;;21.30;99.90;;;;;;5030006;28;20191;-92
2023/06/09 09:05:58;;;;;;;107.05;103.20;;;21.70;99.90;;;;;;5012876;28;20226;-92
2023/06/09 09:08:24;;;;;;;152.13;146.15;;;21.90;99.90;;;;;;5013025;28;20236;-91
2023/06/09 09:10:49;;;;;;;114.55;110.78;;;22.30;99.90;;;;;;5015105;28;20174;-89
2023/06/09 09:13:17;;;;;;;106.40;102.80;;;22.30;99.90;;;;;;5028643;28;20281;-92
2023/06/09 09:15:47;;;;;;;111.55;107.68;;;22.00;99.90;;;;;;5027878;28;20195;-92
2023/06/09 09:18:14;;;;;;;114.78;110.57;;;22.20;99.90;;;;;;5011382;28;20248;-93
2023/06/09 09:20:42;;;;;;;105.05;101.68;;;22.40;99.90;;;;;;5060470;28;20190;-92
2023/06/09 09:23:08;;;;;;;117.07;113.28;;;22.40;99.90;;;;;;5043403;28;20229;-92
2023/06/09 09:25:33;;;;;;;112.55;108.75;;;22.40;99.90;;;;;;5027601;28;20301;-90
2023/06/09 09:28:05;;;;;;;120.68;115.85;;;22.60;99.90;;;;;;5059978;28;20271;-89
2023/06/09 09:30:41;;;;;;;107.38;103.68;;;23.10;99.90;;;;;;5036111;28;20175;-91
2023/06/09 09:33:19;;;;;;;111.18;107.32;;;22.90;99.90;;;;;;5027792;28;20197;-91
2023/06/09 09:35:55;;;;;;;112.25;108.40;;;22.60;99.90;;;;;;5035451;28;20189;-91
2023/06/09 09:38:27;;;;;;;112.45;108.65;;;22.60;99.90;;;;;;5028328;28;20187;-90
2023/06/09 09:40:55;;;;;;;119.18;114.97;;;22.70;99.90;;;;;;5026298;28;20187;-91
2023/06/09 09:43:24;;;;;;;120.53;116.20;;;23.10;99.90;;;;;;5026728;28;20183;-90
2023/06/09 09:45:52;;;;;;;123.82;119.43;;;23.10;99.90;;;;;;5026777;28;20199;-92
2023/06/09 09:48:20;;;;;;;120.05;116.03;;;23.20;99.90;;;;;;5009546;28;20182;-89
2023/06/09 09:50:48;;;;;;;129.60;124.85;;;23.30;99.90;;;;;;5009804;28;20205;-90
2023/06/09 09:53:14;;;;;;;123.85;119.65;;;23.50;99.90;;;;;;5028010;28;20261;-92
2023/06/09 09:55:46;;;;;;;129.52;124.35;;;23.50;99.90;;;;;;5009678;28;20286;-91
2023/06/09 09:58:14;;;;;;;113.47;109.22;;;23.10;99.90;;;;;;5018596;28;20190;-90
2023/06/09 10:00:44;;;;;;;127.90;123.35;;;23.00;99.90;;;;;;5010215;28;20357;-90
2023/06/09 10:03:13;;;;;;;126.47;121.82;;;22.70;99.90;;;;;;5034117;28;20671;-89
2023/06/09 10:05:45;;;;;;;122.72;118.10;;;22.80;99.90;;;;;;5025815;28;20234;-90
2023/06/09 10:08:26;;;;;;;124.40;120.25;;;23.30;99.90;;;;;;5025306;28;20182;-91
2023/06/09 10:10:53;;;;;;;126.72;122.10;;;22.60;99.90;;;;;;5027091;28;20624;-91
2023/06/09 10:13:20;;;;;;;122.65;118.45;;;22.70;99.90;;;;;;5058623;28;20194;-91
2023/06/09 10:15:46;;;;;;;112.97;109.05;;;22.40;99.90;;;;;;5016783;28;20675;-90
2023/06/09 10:18:12;;;;;;;121.68;117.15;;;22.60;99.90;;;;;;5024022;28;20640;-92
2023/06/09 10:20:42;;;;;;;126.72;122.50;;;22.10;99.90;;;;;;5024835;28;20222;-91
2023/06/09 10:23:08;;;;;;;133.77;129.20;;;22.30;99.90;;;;;;5024716;28;20179;-91
2023/06/09 10:25:34;;;;;;;138.18;133.30;;;22.80;99.90;;;;;;5026628;28;20202;-91
2023/06/09 10:28:00;;;;;;;126.20;121.57;;;22.80;99.90;;;;;;5026687;28;20183;-91
2023/06/09 10:30:26;;;;;;;136.50;131.93;;;22.40;99.90;;;;;;5023862;28;20233;-90
2023/06/09 10:32:59;;;;;;;158.25;152.32;;;22.20;99.90;;;;;;5007079;28;20187;-89
2023/06/09 10:35:29;;;;;;;134.27;129.60;;;22.40;99.90;;;;;;5025447;28;20190;-90
2023/06/09 10:37:56;;;;;;;133.70;129.15;;;22.00;99.90;;;;;;5025328;28;20272;-91
2023/06/09 10:40:34;;;;;;;177.75;171.75;;;22.00;99.90;;;;;;5026155;28;20182;-91
2023/06/09 10:43:18;;;;;;;192.32;186.10;;;22.20;99.90;;;;;;5024450;28;20214;-91
2023/06/09 10:45:51;;;;;;;180.38;174.32;;;22.30;99.90;;;;;;5024929;28;20311;-90
2023/06/09 10:48:39;;;;;;;183.30;177.50;;;22.10;99.90;;;;;;5057303;28;20186;-91
2023/06/09 10:51:24;;;;;;;191.10;184.77;;;21.80;99.90;;;;;;5029808;28;20240;-92
2023/06/09 10:54:17;;;;;;;228.00;220.70;;;22.00;99.90;;;;;;5034800;28;20230;-93
2023/06/09 10:56:46;;;;;;;231.85;225.02;;;21.90;99.90;;;;;;5028093;28;20194;-92
2023/06/09 10:59:25;;;;;;;245.93;238.15;;;21.90;99.90;;;;;;5025690;28;20301;-92
2023/06/09 11:02:02;;;;;;;238.20;231.20;;;21.90;99.90;;;;;;5024910;28;20187;-90
2023/06/09 11:04:49;;;;;;;228.60;221.50;;;22.00;99.90;;;;;;5034164;28;20242;-94
2023/06/09 11:07:16;;;;;;;234.45;227.13;;;21.90;99.90;;;;;;5031196;28;20186;-92
2023/06/09 11:09:51;;;;;;;237.73;230.38;;;21.70;99.90;;;;;;5026106;28;20186;-92
2023/06/09 11:12:47;;;;;;;261.02;252.82;;;21.40;99.90;;;;;;5033336;28;20237;-89
2023/06/09 11:15:16;;;;;;;279.45;271.13;;;21.30;99.90;;;;;;5032243;28;20189;-91
2023/06/09 11:17:44;;;;;;;270.48;262.40;;;21.60;99.90;;;;;;5058209;28;20184;-90
2023/06/09 11:20:10;;;;;;;279.40;270.63;;;21.40;99.90;;;;;;5023784;28;20715;-91
2023/06/09 11:22:42;;;;;;;282.85;274.42;;;21.20;99.90;;;;;;5026083;28;20408;-91
2023/06/09 11:25:28;;;;;;;283.20;274.25;;;21.60;99.90;;;;;;5026240;28;20267;-93
2023/06/09 11:27:54;;;;;;;286.30;277.02;;;21.60;99.90;;;;;;5024512;28;20195;-91
2023/06/09 11:30:21;;;;;;;286.92;278.33;;;21.60;99.90;;;;;;5030812;28;20683;-92
2023/06/09 11:32:47;;;;;;;284.25;275.88;;;21.90;99.90;;;;;;5023805;28;20193;-92
2023/06/09 11:35:28;;;;;;;282.52;273.73;;;22.20;99.90;;;;;;5025264;28;20191;-93
2023/06/09 11:38:11;;;;;;;288.08;279.02;;;22.10;99.90;;;;;;5025990;28;20201;-92
2023/06/09 11:40:51;;;;;;;291.55;282.50;;;22.10;99.90;;;;;;5007613;28;20528;-92
2023/06/09 11:43:19;;;;;;;290.98;282.40;;;22.10;99.90;;;;;;5009254;28;20182;-90
2023/06/09 11:45:46;;;;;;;291.67;282.50;;;22.00;99.90;;;;;;5008356;28;20210;-90
2023/06/09 11:48:12;;;;;;;289.23;280.33;;;22.00;99.90;;;;;;5026029;28;20201;-91
2023/06/09 11:50:43;;;;;;;277.15;268.25;;;21.90;99.90;;;;;;5009518;28;20178;-92
2023/06/09 11:53:15;;;;;;;292.75;283.85;;;22.00;99.90;;;;;;5059974;28;20236;-92
2023/06/09 11:55:41;;;;;;;278.27;269.37;;;21.40;99.90;;;;;;5034027;28;20201;-92
2023/06/09 11:58:12;;;;;;;263.75;255.32;;;21.40;99.90;;;;;;5023886;28;20186;-92
2023/06/09 12:00:43;;;;;;;265.27;256.20;;;21.70;99.90;;;;;;5040777;28;20600;-92
2023/06/09 12:03:10;;;;;;;265.33;256.97;;;21.60;99.90;;;;;;5022265;28;20197;-92
2023/06/09 12:05:36;;;;;;;225.77;218.53;;;21.40;99.90;;;;;;5023600;28;20297;-91
2023/06/09 12:08:02;;;;;;;226.90;219.65;;;21.70;99.90;;;;;;5023909;28;20203;-90
2023/06/09 12:10:29;;;;;;;234.15;227.05;;;22.10;99.90;;;;;;5023722;28;20189;-91
2023/06/09 12:12:57;;;;;;;214.88;208.07;;;22.00;99.90;;;;;;5024806;28;20662;-91
2023/06/09 12:15:24;;;;;;;226.18;219.18;;;22.30;99.90;;;;;;5024200;28;20198;-90
2023/06/09 12:17:52;;;;;;;259.42;251.18;;;22.40;99.90;;;;;;5042490;28;20190;-90